Time;durP1;ratioP1;P1;durP2;ratioP2;P2;SDS_P1;SDS_P2;PMS_P1;PMS_P2;Temp;Humidity;BMP_temperature;BMP_pressure;BME280_temperature;BME280_humidity;BME280_pressure;Samples;Min_cycle;Max_cycle;Signal;HPM_P1;HPM_P2
2022/08/26 00:00:09;;;;;;;17.00;4.70;;;;;;;19.95;90.32;100183.03;105758;1274;22762;-64
2022/08/26 00:03:02;;;;;;;11.80;3.20;;;;;;;19.91;90.54;100182.45;105794;1270;22544;-65
2022/08/26 00:05:34;;;;;;;13.60;3.60;;;;;;;19.86;90.67;100178.10;105912;1270;25244;-65
2022/08/26 00:08:07;;;;;;;16.30;3.50;;;;;;;19.81;90.39;100180.22;105927;1270;24529;-65
2022/08/26 00:10:40;;;;;;;11.30;3.00;;;;;;;19.76;90.71;100170.75;105969;1270;22692;-65
2022/08/26 00:13:12;;;;;;;13.10;3.40;;;;;;;19.73;90.57;100172.23;105955;1270;22610;-65
2022/08/26 00:15:45;;;;;;;14.80;4.10;;;;;;;19.72;90.66;100168.66;105918;1270;22553;-65
2022/08/26 00:18:17;;;;;;;13.00;3.50;;;;;;;19.71;90.36;100164.41;105948;1270;22547;-65
2022/08/26 00:20:49;;;;;;;15.60;4.10;;;;;;;19.69;90.39;100163.97;105882;1270;23598;-64
2022/08/26 00:23:22;;;;;;;19.00;4.50;;;;;;;19.69;90.35;100165.33;105979;1270;26511;-66
2022/08/26 00:25:54;;;;;;;12.40;3.70;;;;;;;19.67;90.39;100161.07;105832;1270;22554;-65
2022/08/26 00:28:27;;;;;;;11.70;3.70;;;;;;;19.64;90.40;100159.44;105914;1270;25314;-64
2022/08/26 00:30:58;;;;;;;13.00;3.90;;;;;;;19.64;90.55;100155.47;105989;1270;22547;-66
2022/08/26 00:33:30;;;;;;;11.10;3.40;;;;;;;19.63;90.45;100159.76;105977;1270;22708;-64
2022/08/26 00:36:02;;;;;;;15.00;3.80;;;;;;;19.61;90.41;100157.02;105869;1270;22553;-64
2022/08/26 00:38:35;;;;;;;14.70;3.80;;;;;;;19.57;90.59;100157.55;106021;1270;22528;-66
2022/08/26 00:41:07;;;;;;;12.50;4.00;;;;;;;19.54;90.54;100155.52;105989;1270;26403;-65
2022/08/26 00:43:39;;;;;;;11.30;3.10;;;;;;;19.48;90.80;100157.88;105959;1270;25408;-65
2022/08/26 00:46:16;;;;;;;14.40;3.70;;;;;;;19.43;90.78;100150.47;105992;1270;22515;-66
2022/08/26 00:48:50;;;;;;;15.80;4.00;;;;;;;19.39;90.91;100150.74;105896;1270;23221;-66
2022/08/26 00:51:25;;;;;;;14.10;4.50;;;;;;;19.34;90.99;100150.83;105902;1270;22649;-65
2022/08/26 00:54:02;;;;;;;11.20;2.70;;;;;;;19.32;90.99;100150.54;105889;1270;22536;-66
2022/08/26 00:56:38;;;;;;;13.10;2.70;;;;;;;19.27;90.81;100153.24;105969;1270;22553;-65
2022/08/26 00:59:13;;;;;;;15.80;3.40;;;;;;;19.23;90.80;100152.23;106233;1270;25378;-64
2022/08/26 01:01:46;;;;;;;10.00;3.30;;;;;;;19.21;90.95;100145.80;106109;1270;22769;-64
2022/08/26 01:04:21;;;;;;;9.60;2.50;;;;;;;19.18;90.88;100146.50;105921;1270;25333;-65
2022/08/26 01:06:54;;;;;;;12.00;2.70;;;;;;;19.16;90.91;100148.65;105905;1270;25595;-63
2022/08/26 01:09:26;;;;;;;12.60;2.50;;;;;;;19.13;90.94;100142.23;105800;1270;22861;-65
2022/08/26 01:12:01;;;;;;;10.00;2.80;;;;;;;19.11;90.94;100141.84;105935;1270;25436;-65
2022/08/26 01:14:36;;;;;;;15.60;3.90;;;;;;;19.10;91.11;100138.41;105930;1268;25396;-66
2022/08/26 01:17:09;;;;;;;10.60;3.10;;;;;;;19.11;91.00;100140.98;105949;1270;22529;-63
2022/08/26 01:19:45;;;;;;;13.40;3.80;;;;;;;19.11;91.34;100141.39;106107;1270;22533;-65
2022/08/26 01:22:21;;;;;;;8.10;2.60;;;;;;;19.10;91.58;100143.45;106044;1270;22756;-64
2022/08/26 01:24:52;;;;;;;10.40;2.60;;;;;;;19.10;91.76;100143.04;105931;1270;22854;-66
2022/08/26 01:27:26;;;;;;;6.70;2.00;;;;;;;19.09;92.12;100147.31;105941;1270;23074;-64
2022/08/26 01:29:59;;;;;;;5.60;1.80;;;;;;;19.06;92.11;100149.39;106148;1270;25654;-65
2022/08/26 01:32:32;;;;;;;7.60;2.10;;;;;;;19.03;92.38;100151.39;105970;1270;24316;-66
2022/08/26 01:35:04;;;;;;;9.40;3.00;;;;;;;18.99;92.49;100151.30;106097;1270;22697;-65
2022/08/26 01:37:38;;;;;;;8.70;2.30;;;;;;;18.96;92.56;100153.58;105915;1270;22530;-64
2022/08/26 01:40:16;;;;;;;8.60;2.30;;;;;;;18.93;92.36;100153.11;105993;1270;23196;-65
2022/08/26 01:42:50;;;;;;;10.40;2.50;;;;;;;18.89;92.32;100151.88;105958;1270;22687;-64
2022/08/26 01:45:25;;;;;;;8.50;2.30;;;;;;;18.86;92.21;100144.68;105951;1270;22540;-66
2022/08/26 01:47:59;;;;;;;10.70;2.60;;;;;;;18.82;92.10;100143.86;105936;1270;22762;-69
2022/08/26 01:50:33;;;;;;;7.80;2.70;;;;;;;18.80;91.92;100141.65;106090;1270;22657;-65
2022/08/26 01:53:10;;;;;;;9.60;2.50;;;;;;;18.76;91.97;100139.84;106054;1270;22611;-65
2022/08/26 01:55:46;;;;;;;7.60;2.20;;;;;;;18.72;91.85;100140.16;105944;1270;22567;-64
2022/08/26 01:58:28;;;;;;;7.30;2.10;;;;;;;18.67;92.02;100140.20;105933;1270;25503;-64
2022/08/26 02:00:59;;;;;;;7.80;2.20;;;;;;;18.63;92.00;100139.70;105913;1270;22551;-64
2022/08/26 02:03:33;;;;;;;9.40;2.40;;;;;;;18.60;92.25;100139.40;105995;1270;25484;-65
2022/08/26 02:06:08;;;;;;;10.50;3.00;;;;;;;18.57;92.40;100140.13;106081;1270;24225;-65
2022/08/26 02:08:42;;;;;;;7.90;2.40;;;;;;;18.55;92.54;100141.91;106140;1270;22625;-65
2022/08/26 02:11:15;;;;;;;9.60;2.70;;;;;;;18.52;92.65;100146.33;106076;1270;22678;-66
2022/08/26 02:13:49;;;;;;;6.00;2.10;;;;;;;18.47;92.68;100141.27;105948;1270;22602;-66
2022/08/26 02:16:24;;;;;;;6.50;2.10;;;;;;;18.44;92.83;100140.59;105917;1270;25552;-66
2022/08/26 02:18:57;;;;;;;5.20;2.00;;;;;;;18.40;92.50;100139.50;106421;1258;22537;-55
2022/08/26 02:21:30;;;;;;;5.50;2.10;;;;;;;18.36;92.62;100141.13;105817;1270;25538;-58
2022/08/26 02:24:11;;;;;;;7.10;2.40;;;;;;;18.34;92.63;100141.96;106009;1270;25362;-57
2022/08/26 02:26:44;;;;;;;7.60;2.20;;;;;;;18.30;92.63;100143.23;105828;1270;22611;-58
2022/08/26 02:29:23;;;;;;;10.60;3.40;;;;;;;18.28;92.56;100144.86;105898;1270;25236;-55
2022/08/26 02:31:55;;;;;;;9.00;4.20;;;;;;;18.25;92.51;100143.52;105973;1271;23965;-56
2022/08/26 02:34:29;;;;;;;12.80;4.80;;;;;;;18.22;92.52;100142.63;105847;1271;22548;-57
2022/08/26 02:37:02;;;;;;;14.50;6.10;;;;;;;18.19;92.67;100143.23;105790;1271;24372;-57
2022/08/26 02:39:35;;;;;;;17.60;6.50;;;;;;;18.15;92.79;100139.95;105882;1271;24378;-58
2022/08/26 02:42:08;;;;;;;14.00;4.80;;;;;;;18.13;92.88;100141.01;105877;1271;22673;-57
2022/08/26 02:44:40;;;;;;;9.00;3.30;;;;;;;18.09;92.84;100140.17;105870;1271;25460;-58
2022/08/26 02:47:15;;;;;;;10.00;3.60;;;;;;;18.08;93.00;100141.27;105919;1271;22613;-57
2022/08/26 02:49:47;;;;;;;10.50;3.60;;;;;;;18.06;93.08;100141.46;105940;1271;25308;-55
2022/08/26 02:52:19;;;;;;;8.30;3.50;;;;;;;18.04;92.93;100139.02;105807;1271;25297;-57
2022/08/26 02:54:51;;;;;;;11.20;3.40;;;;;;;18.01;93.19;100139.62;105918;1271;24397;-57
2022/08/26 02:57:23;;;;;;;9.80;3.40;;;;;;;18.00;93.18;100139.31;105990;1271;22560;-57
2022/08/26 02:59:55;;;;;;;10.40;3.30;;;;;;;17.98;92.98;100136.61;106083;1271;24328;-56
2022/08/26 03:02:27;;;;;;;8.50;3.20;;;;;;;17.97;93.15;100132.79;105878;1271;25358;-57
2022/08/26 03:04:58;;;;;;;11.20;3.00;;;;;;;17.95;92.92;100131.02;105793;1271;27220;-57
2022/08/26 03:07:30;;;;;;;14.60;2.00;;;;;;;17.94;93.61;100130.61;106068;1271;22875;-58
2022/08/26 03:10:02;;;;;;;14.70;2.50;;;;;;;17.93;94.63;100129.96;105977;1271;24378;-57
2022/08/26 03:12:33;;;;;;;7.40;2.00;;;;;;;17.93;94.77;100126.93;106059;1271;24218;-58
2022/08/26 03:15:06;;;;;;;20.10;2.20;;;;;;;17.91;94.59;100126.96;105894;1271;22597;-58
2022/08/26 03:17:38;;;;;;;13.50;2.80;;;;;;;17.89;95.03;100119.85;105868;1271;22560;-56
2022/08/26 03:20:10;;;;;;;9.90;2.00;;;;;;;17.88;94.99;100116.74;105831;1271;23091;-57
2022/08/26 03:22:42;;;;;;;9.80;2.50;;;;;;;17.84;94.64;100116.63;105826;1271;25397;-57
2022/08/26 03:25:16;;;;;;;8.40;3.00;;;;;;;17.81;94.61;100114.45;105812;1271;22602;-57
2022/08/26 03:27:48;;;;;;;10.00;3.80;;;;;;;17.78;94.60;100114.54;105878;1271;22542;-56
2022/08/26 03:33:12;;;;;;;10.70;3.10;;;;;;;17.74;94.86;100115.52;105801;1271;25242;-55
2022/08/26 03:35:46;;;;;;;8.10;2.30;;;;;;;17.71;94.87;100114.84;105864;1271;22540;-58
2022/08/26 03:38:18;;;;;;;9.50;3.60;;;;;;;17.70;94.69;100115.98;105865;1271;22685;-55
2022/08/26 03:40:51;;;;;;;8.20;2.60;;;;;;;17.66;94.78;100110.79;105852;1271;22589;-58
2022/08/26 03:43:25;;;;;;;7.70;3.20;;;;;;;17.64;94.71;100110.23;105933;1271;25356;-58
2022/08/26 03:45:56;;;;;;;10.50;4.20;;;;;;;17.62;94.68;100107.70;105893;1271;22762;-58
2022/08/26 03:48:28;;;;;;;8.50;2.90;;;;;;;17.60;94.86;100113.52;105992;1271;22710;-58
2022/08/26 03:51:00;;;;;;;11.30;2.80;;;;;;;17.58;94.81;100117.03;105848;1271;22697;-58
2022/08/26 03:53:32;;;;;;;12.00;4.20;;;;;;;17.55;94.85;100115.13;105787;1271;22701;-58
2022/08/26 03:56:04;;;;;;;14.70;4.20;;;;;;;17.53;94.83;100115.00;105967;1271;24252;-58
2022/08/26 03:58:36;;;;;;;8.70;3.60;;;;;;;17.50;95.02;100119.09;105857;1271;24495;-57
2022/08/26 04:01:08;;;;;;;9.20;4.30;;;;;;;17.49;94.97;100122.88;105762;1271;25426;-58
2022/08/26 04:03:59;;;;;;;9.50;4.20;;;;;;;17.49;95.01;100123.39;105859;1271;24336;-58
2022/08/26 04:06:34;;;;;;;14.70;5.20;;;;;;;17.48;94.90;100123.28;105854;1271;22588;-57
2022/08/26 04:09:08;;;;;;;11.90;4.80;;;;;;;17.47;94.92;100119.09;105697;1271;25970;-57
2022/08/26 04:11:40;;;;;;;14.20;6.00;;;;;;;17.45;94.97;100119.73;105776;1271;22556;-57
2022/08/26 04:14:15;;;;;;;15.70;7.00;;;;;;;17.44;94.89;100120.85;105794;1271;25367;-57
2022/08/26 04:16:47;;;;;;;14.00;5.60;;;;;;;17.43;94.95;100117.17;105808;1271;22531;-57
2022/08/26 04:19:19;;;;;;;13.30;5.50;;;;;;;17.43;94.84;100120.92;105783;1271;26552;-58
2022/08/26 04:21:52;;;;;;;16.80;5.40;;;;;;;17.43;95.00;100120.00;105910;1271;24108;-57
2022/08/26 04:24:26;;;;;;;14.90;5.20;;;;;;;17.44;94.96;100120.96;105869;1271;22547;-57
2022/08/26 04:27:02;;;;;;;14.70;6.70;;;;;;;17.45;95.03;100121.06;105755;1271;23066;-57
2022/08/26 04:29:35;;;;;;;16.70;6.90;;;;;;;17.46;95.13;100117.91;106068;1271;22571;-57
2022/08/26 04:32:07;;;;;;;14.90;5.60;;;;;;;17.48;95.23;100118.05;105820;1271;22609;-59
2022/08/26 04:34:39;;;;;;;15.00;5.60;;;;;;;17.50;95.42;100120.52;105812;1271;23103;-58
2022/08/26 04:37:13;;;;;;;18.20;6.40;;;;;;;17.51;95.42;100120.45;106069;1270;24756;-58
2022/08/26 04:39:44;;;;;;;18.70;5.90;;;;;;;17.53;95.60;100122.42;105715;1271;23183;-57
2022/08/26 04:42:16;;;;;;;17.70;4.70;;;;;;;17.55;95.79;100123.39;105855;1271;22547;-57
2022/08/26 04:44:49;;;;;;;19.60;5.10;;;;;;;17.55;96.04;100124.55;105756;1271;22546;-57
2022/08/26 04:47:21;;;;;;;16.90;5.40;;;;;;;17.56;96.23;100124.13;105711;1271;22569;-58
2022/08/26 04:49:54;;;;;;;14.70;5.10;;;;;;;17.58;96.67;100124.02;105796;1271;25356;-58
2022/08/26 04:52:26;;;;;;;14.50;5.30;;;;;;;17.60;96.63;100119.38;105977;1271;25383;-56
2022/08/26 04:54:57;;;;;;;18.90;5.60;;;;;;;17.62;96.79;100122.16;105814;1271;22668;-55
2022/08/26 04:57:30;;;;;;;17.30;4.80;;;;;;;17.65;97.02;100122.39;105790;1271;25403;-57
2022/08/26 05:00:03;;;;;;;13.50;4.60;;;;;;;17.68;96.97;100122.41;105730;1272;25293;-58
2022/08/26 05:02:35;;;;;;;13.60;4.00;;;;;;;17.72;97.16;100119.45;106099;1271;25385;-57
2022/08/26 05:05:08;;;;;;;15.20;5.00;;;;;;;17.76;97.42;100119.70;105863;1271;22551;-59
2022/08/26 05:07:40;;;;;;;10.50;5.30;;;;;;;17.81;97.58;100122.66;105707;1271;24382;-58
2022/08/26 05:10:13;;;;;;;13.20;5.00;;;;;;;17.87;97.75;100121.42;105709;1271;22742;-57
2022/08/26 05:12:45;;;;;;;11.30;5.20;;;;;;;17.92;98.12;100124.59;105888;1271;22626;-59
2022/08/26 05:15:17;;;;;;;17.00;5.50;;;;;;;17.97;98.42;100122.67;105761;1271;22566;-58
2022/08/26 05:17:49;;;;;;;10.70;5.90;;;;;;;18.03;98.60;100122.80;105837;1271;25350;-59
2022/08/26 05:20:21;;;;;;;11.00;5.10;;;;;;;18.07;99.02;100126.50;105815;1271;22563;-56
2022/08/26 05:22:53;;;;;;;18.40;6.20;;;;;;;18.10;99.06;100127.64;105820;1271;22630;-57
2022/08/26 05:25:24;;;;;;;17.90;5.30;;;;;;;18.13;98.95;100121.83;106008;1271;25418;-54
2022/08/26 05:27:56;;;;;;;18.10;5.80;;;;;;;18.19;99.19;100125.81;105741;1271;22690;-54
2022/08/26 05:30:30;;;;;;;16.10;7.60;;;;;;;18.23;99.41;100128.38;105731;1271;25246;-55
2022/08/26 05:33:01;;;;;;;15.00;6.40;;;;;;;18.28;99.54;100128.42;105736;1271;22551;-56
2022/08/26 05:35:33;;;;;;;20.60;8.50;;;;;;;18.34;99.76;100126.23;105876;1271;25424;-57
2022/08/26 05:38:07;;;;;;;19.50;7.60;;;;;;;18.40;100.00;100127.88;105843;1271;25402;-56
2022/08/26 05:40:41;;;;;;;17.10;7.30;;;;;;;18.48;100.00;100123.79;105745;1271;25186;-56
2022/08/26 05:43:13;;;;;;;18.70;8.90;;;;;;;18.56;100.00;100126.38;105764;1271;22726;-57
2022/08/26 05:45:46;;;;;;;20.80;9.70;;;;;;;18.63;100.00;100126.33;105785;1271;22806;-56
2022/08/26 05:48:20;;;;;;;25.50;11.40;;;;;;;18.71;100.00;100125.53;105696;1271;22613;-56
2022/08/26 05:50:53;;;;;;;27.70;12.90;;;;;;;18.82;100.00;100124.03;105685;1272;25513;-55
2022/08/26 05:53:24;;;;;;;21.40;11.80;;;;;;;18.93;100.00;100123.13;105683;1271;22715;-57
2022/08/26 05:55:57;;;;;;;23.90;11.90;;;;;;;19.02;100.00;100122.77;105751;1271;25385;-56
2022/08/26 05:58:29;;;;;;;25.50;11.50;;;;;;;19.12;100.00;100117.49;105695;1271;25302;-55
2022/08/26 06:01:04;;;;;;;20.10;10.90;;;;;;;19.22;100.00;100120.29;105761;1271;22549;-57
2022/08/26 06:03:40;;;;;;;26.00;10.90;;;;;;;19.30;100.00;100123.80;105684;1271;22692;-57
2022/08/26 06:06:15;;;;;;;26.10;12.40;;;;;;;19.40;100.00;100122.68;105761;1271;22558;-57
2022/08/26 06:08:47;;;;;;;26.70;13.00;;;;;;;19.48;100.00;100122.46;105672;1271;22619;-57
2022/08/26 06:11:23;;;;;;;24.40;10.70;;;;;;;19.57;100.00;100123.41;105857;1271;25475;-57
2022/08/26 06:13:57;;;;;;;26.90;12.40;;;;;;;19.65;100.00;100124.13;105709;1271;22615;-58
2022/08/26 06:16:29;;;;;;;26.90;11.40;;;;;;;19.73;100.00;100123.27;105686;1271;22542;-57
2022/08/26 06:19:01;;;;;;;22.40;11.10;;;;;;;19.80;100.00;100120.95;105648;1271;22797;-56
2022/08/26 06:21:34;;;;;;;23.90;10.90;;;;;;;19.88;100.00;100122.65;105736;1271;25573;-57
2022/08/26 06:27:12;;;;;;;24.30;9.60;;;;;;;20.04;99.98;100124.70;105373;1277;25199;-57
2022/08/26 06:29:44;;;;;;;28.00;11.20;;;;;;;20.12;100.00;100124.23;105543;1277;22556;-58
2022/08/26 06:32:16;;;;;;;29.50;13.50;;;;;;;20.20;100.00;100129.30;105620;1277;22531;-58
2022/08/26 06:34:49;;;;;;;28.70;12.00;;;;;;;20.27;99.88;100129.47;105554;1278;24322;-59
2022/08/26 06:37:21;;;;;;;20.40;10.50;;;;;;;20.32;99.85;100131.35;105527;1277;23022;-57
2022/08/26 06:39:53;;;;;;;20.00;10.40;;;;;;;20.38;99.88;100129.57;105407;1278;25494;-57
2022/08/26 06:42:25;;;;;;;25.00;11.50;;;;;;;20.45;99.82;100129.19;105445;1277;26679;-58
2022/08/26 06:44:56;;;;;;;24.80;11.60;;;;;;;20.52;99.48;100127.76;105404;1277;22656;-57
2022/08/26 06:47:29;;;;;;;22.20;10.40;;;;;;;20.59;99.66;100127.08;105468;1278;22848;-57
2022/08/26 06:50:01;;;;;;;25.40;11.40;;;;;;;20.67;99.58;100128.59;105529;1277;22543;-58
2022/08/26 06:52:33;;;;;;;21.60;10.60;;;;;;;20.73;99.66;100124.42;105463;1278;22543;-56
2022/08/26 06:55:07;;;;;;;23.00;10.90;;;;;;;20.80;99.60;100120.94;105448;1277;24261;-56
2022/08/26 06:57:38;;;;;;;26.00;11.30;;;;;;;20.87;99.47;100119.17;105392;1279;22543;-58
2022/08/26 07:00:14;;;;;;;25.90;12.10;;;;;;;20.93;99.44;100117.15;105526;1279;22685;-58
2022/08/26 07:02:45;;;;;;;25.70;11.20;;;;;;;21.00;99.13;100117.41;105699;1271;22642;-57
2022/08/26 07:05:17;;;;;;;24.40;12.00;;;;;;;21.04;99.01;100117.58;105854;1271;22556;-57
2022/08/26 07:07:48;;;;;;;27.40;11.00;;;;;;;21.09;98.81;100116.55;105791;1271;24254;-59
2022/08/26 07:10:21;;;;;;;23.10;10.00;;;;;;;21.15;98.44;100120.20;105815;1271;22714;-55
2022/08/26 07:12:53;;;;;;;21.80;10.30;;;;;;;21.20;98.74;100120.33;105932;1271;22564;-55
2022/08/26 07:15:24;;;;;;;22.80;11.30;;;;;;;21.26;98.46;100124.95;105817;1271;22531;-58
2022/08/26 07:17:56;;;;;;;29.00;11.20;;;;;;;21.34;98.80;100128.41;105779;1272;23356;-58
2022/08/26 07:20:28;;;;;;;29.10;12.20;;;;;;;21.45;98.75;100128.84;105841;1271;25314;-57
2022/08/26 07:22:59;;;;;;;32.00;11.70;;;;;;;21.54;98.67;100124.39;105996;1271;23188;-58
2022/08/26 07:25:31;;;;;;;22.40;10.10;;;;;;;21.60;97.68;100124.73;105870;1272;22710;-56
2022/08/26 07:28:02;;;;;;;23.80;10.40;;;;;;;21.65;97.33;100128.33;106085;1271;25370;-58
2022/08/26 07:30:39;;;;;;;29.30;11.10;;;;;;;21.72;96.87;100128.03;105976;1271;24257;-57
2022/08/26 07:33:11;;;;;;;24.70;11.40;;;;;;;21.79;96.95;100126.71;105906;1271;24377;-58
2022/08/26 07:35:43;;;;;;;26.50;10.70;;;;;;;21.87;97.11;100127.27;105905;1272;25263;-58
2022/08/26 07:38:14;;;;;;;25.60;10.00;;;;;;;21.95;96.35;100123.89;105918;1271;25398;-58
2022/08/26 07:40:46;;;;;;;21.80;10.00;;;;;;;22.00;96.11;100123.89;105756;1271;22551;-57
2022/08/26 07:43:18;;;;;;;25.20;10.00;;;;;;;22.08;95.49;100126.04;105850;1272;23143;-57
2022/08/26 07:45:50;;;;;;;28.70;10.50;;;;;;;22.14;95.56;100124.26;105804;1271;24062;-57
2022/08/26 07:48:21;;;;;;;25.60;9.00;;;;;;;22.19;94.66;100125.33;105764;1271;24978;-57
2022/08/26 07:50:53;;;;;;;30.50;9.40;;;;;;;22.23;94.12;100123.11;105880;1271;24051;-56
2022/08/26 07:53:25;;;;;;;23.70;9.50;;;;;;;22.28;93.63;100120.83;105918;1271;25468;-58
2022/08/26 07:55:57;;;;;;;25.50;9.60;;;;;;;22.34;93.77;100120.91;105788;1271;22578;-58
2022/08/26 07:58:29;;;;;;;32.80;10.60;;;;;;;22.39;94.02;100115.88;105885;1271;25472;-58
2022/08/26 08:01:01;;;;;;;25.90;9.50;;;;;;;22.49;93.68;100116.14;105968;1271;22690;-58
2022/08/26 08:03:33;;;;;;;23.90;10.50;;;;;;;22.54;93.18;100115.05;105854;1271;22531;-55
2022/08/26 08:06:06;;;;;;;22.70;8.60;;;;;;;22.60;92.50;100119.80;105942;1271;22576;-58
2022/08/26 08:08:40;;;;;;;24.10;10.20;;;;;;;22.67;92.64;100118.29;105821;1271;22529;-56
2022/08/26 08:11:11;;;;;;;23.10;8.70;;;;;;;22.75;92.35;100116.52;105769;1272;25510;-57
2022/08/26 08:13:43;;;;;;;29.00;9.20;;;;;;;22.83;91.98;100118.95;106003;1272;25414;-58
2022/08/26 08:16:14;;;;;;;24.80;9.40;;;;;;;22.88;91.49;100116.35;105942;1271;25050;-57
2022/08/26 08:18:55;;;;;;;27.50;8.70;;;;;;;22.93;90.99;100114.00;106058;1271;22480;-58
2022/08/26 08:21:28;;;;;;;25.10;8.30;;;;;;;22.99;90.75;100112.45;105844;1271;22614;-66
2022/08/26 08:23:59;;;;;;;20.60;7.70;;;;;;;23.07;90.14;100113.85;105798;1271;22559;-65
2022/08/26 08:26:31;;;;;;;20.50;8.20;;;;;;;23.14;89.58;100115.30;105874;1271;24315;-66
2022/08/26 08:29:04;;;;;;;20.00;7.70;;;;;;;23.22;89.48;100111.80;105864;1271;25257;-65
2022/08/26 08:31:36;;;;;;;23.50;9.40;;;;;;;23.28;89.03;100113.73;105978;1271;22690;-66
2022/08/26 08:34:07;;;;;;;21.20;8.10;;;;;;;23.35;88.99;100113.55;105914;1271;22544;-66
2022/08/26 08:36:40;;;;;;;25.60;8.10;;;;;;;23.41;88.94;100111.96;106012;1271;25310;-65
2022/08/26 08:39:11;;;;;;;21.60;8.70;;;;;;;23.48;88.38;100112.02;106003;1271;22540;-65
2022/08/26 08:42:10;;;;;;;22.40;9.30;;;;;;;23.54;88.04;100105.05;106009;1271;25384;-66
2022/08/26 08:44:47;;;;;;;21.40;7.00;;;;;;;23.61;87.44;100101.59;106087;1271;22683;-66
2022/08/26 08:47:28;;;;;;;29.30;8.90;;;;;;;23.68;87.54;100102.10;105992;1271;22935;-67
2022/08/26 08:50:06;;;;;;;22.80;8.00;;;;;;;23.77;87.42;100100.95;105642;1271;22547;-66
2022/08/26 08:52:40;;;;;;;21.60;8.20;;;;;;;23.86;86.59;100099.69;106101;1271;22559;-67
2022/08/26 08:55:15;;;;;;;22.90;8.40;;;;;;;23.96;86.00;100100.65;106004;1271;22549;-66
2022/08/26 08:57:58;;;;;;;22.70;8.20;;;;;;;24.05;85.17;100098.24;105868;1271;25494;-67
2022/08/26 09:00:39;;;;;;;23.00;7.20;;;;;;;24.14;85.44;100093.77;105717;1270;22535;-66
2022/08/26 09:03:21;;;;;;;20.20;7.00;;;;;;;24.21;84.39;100094.34;105960;1270;22631;-65
2022/08/26 09:05:54;;;;;;;18.70;6.00;;;;;;;24.31;83.80;100091.39;105876;1272;22610;-66
2022/08/26 09:08:30;;;;;;;19.60;6.60;;;;;;;24.47;83.82;100089.15;105663;1271;23100;-67
2022/08/26 09:11:06;;;;;;;21.20;7.00;;;;;;;24.56;83.24;100090.77;105713;1271;22782;-67
2022/08/26 09:13:38;;;;;;;20.20;7.50;;;;;;;24.66;82.94;100084.98;105823;1271;25273;-67
2022/08/26 09:16:15;;;;;;;23.00;7.10;;;;;;;24.77;81.95;100085.96;105967;1271;22568;-66
2022/08/26 09:19:04;;;;;;;22.20;6.60;;;;;;;24.85;81.22;100090.62;105827;1271;24385;-68
2022/08/26 09:21:35;;;;;;;25.20;7.50;;;;;;;24.91;80.35;100086.05;105786;1271;22629;-67
2022/08/26 09:24:07;;;;;;;21.10;5.90;;;;;;;24.97;80.41;100083.67;105733;1271;24253;-65
2022/08/26 09:26:47;;;;;;;23.00;6.40;;;;;;;25.07;79.93;100081.69;105800;1271;22551;-67
2022/08/26 09:29:25;;;;;;;18.30;5.70;;;;;;;25.14;79.40;100079.95;105837;1271;25328;-67
2022/08/26 09:32:18;;;;;;;23.50;6.10;;;;;;;25.20;78.96;100080.80;105849;1272;22552;-66
2022/08/26 09:34:58;;;;;;;21.60;5.50;;;;;;;25.28;77.49;100074.14;105886;1271;23156;-65
2022/08/26 09:37:42;;;;;;;16.30;4.60;;;;;;;25.35;76.10;100075.17;105924;1271;22547;-65
2022/08/26 09:40:21;;;;;;;14.50;4.00;;;;;;;25.40;75.05;100075.64;105841;1271;22562;-66
2022/08/26 09:46:19;;;;;;;19.10;5.50;;;;;;;25.55;74.01;100075.91;101530;1317;548602;-69
2022/08/26 09:48:51;;;;;;;17.70;4.70;;;;;;;25.61;73.64;100070.14;104488;1287;22649;-67
2022/08/26 09:51:32;;;;;;;17.50;4.50;;;;;;;25.69;73.58;100066.76;105519;1276;24253;-66
2022/08/26 09:54:04;;;;;;;15.10;4.50;;;;;;;25.79;72.99;100064.47;105663;1277;22569;-68
2022/08/26 09:56:38;;;;;;;14.30;3.80;;;;;;;25.93;72.30;100060.23;105544;1277;22603;-68
2022/08/26 09:59:13;;;;;;;13.50;3.20;;;;;;;25.98;70.95;100056.61;101701;1274;5375420;-66
2022/08/26 10:01:46;;;;;;;12.30;3.50;;;;;;;25.99;69.51;100052.41;105962;1274;25349;-66
2022/08/26 10:04:25;;;;;;;22.30;3.90;;;;;;;26.00;68.68;100054.23;105769;1274;22541;-68
2022/08/26 10:07:04;;;;;;;19.00;2.80;;;;;;;26.05;68.36;100050.85;105834;1274;24251;-66
2022/08/26 10:09:41;;;;;;;10.90;2.40;;;;;;;26.07;67.66;100052.80;105789;1273;22544;-66
2022/08/26 10:12:17;;;;;;;13.40;2.60;;;;;;;26.12;67.14;100048.06;105809;1274;24234;-66
2022/08/26 10:14:54;;;;;;;16.20;3.20;;;;;;;26.20;66.59;100049.83;105854;1274;22540;-66
2022/08/26 10:17:34;;;;;;;18.20;3.20;;;;;;;26.30;66.84;100049.48;105907;1274;22545;-66
2022/08/26 10:20:11;;;;;;;13.90;3.10;;;;;;;26.40;67.04;100041.06;105813;1274;26593;-67
2022/08/26 10:22:52;;;;;;;12.30;2.90;;;;;;;26.52;66.45;100044.23;106062;1273;24399;-67
2022/08/26 10:25:28;;;;;;;12.60;3.10;;;;;;;26.59;65.66;100043.64;105841;1274;24310;-66
2022/08/26 10:28:07;;;;;;;19.50;4.50;;;;;;;26.62;65.91;100040.50;105793;1274;24271;-67
2022/08/26 10:30:47;;;;;;;15.30;3.50;;;;;;;26.70;65.94;100039.85;105855;1273;22548;-67
2022/08/26 10:33:19;;;;;;;16.60;3.90;;;;;;;26.72;64.44;100036.89;105872;1274;22584;-67
2022/08/26 10:35:55;;;;;;;15.20;3.50;;;;;;;26.74;64.14;100034.70;105782;1274;25463;-67
2022/08/26 10:38:33;;;;;;;11.80;2.40;;;;;;;26.75;63.85;100032.68;105716;1272;23241;-69
2022/08/26 10:41:11;;;;;;;15.20;3.00;;;;;;;26.79;62.90;100028.95;105883;1273;22534;-67
2022/08/26 10:43:48;;;;;;;18.70;3.10;;;;;;;26.82;62.62;100029.77;106334;1274;25449;-66
2022/08/26 10:46:24;;;;;;;11.00;2.70;;;;;;;26.85;61.64;100025.17;106170;1273;22705;-67
2022/08/26 10:49:00;;;;;;;9.10;2.30;;;;;;;26.93;61.59;100023.21;105769;1272;25436;-67
2022/08/26 10:51:40;;;;;;;9.70;2.50;;;;;;;27.03;61.65;100021.79;105858;1272;25389;-66
2022/08/26 10:54:17;;;;;;;11.60;2.60;;;;;;;27.10;61.37;100017.33;105846;1272;24433;-68
2022/08/26 10:56:57;;;;;;;13.70;2.60;;;;;;;27.14;59.60;100018.21;105778;1273;22534;-67
2022/08/26 10:59:43;;;;;;;13.00;2.30;;;;;;;27.20;59.48;100014.08;105780;1274;24437;-66
2022/08/26 11:02:20;;;;;;;8.90;2.00;;;;;;;27.22;59.49;100011.42;105787;1274;24345;-66
2022/08/26 11:04:55;;;;;;;11.40;2.20;;;;;;;27.27;59.18;100011.00;105818;1274;22761;-67
2022/08/26 11:07:38;;;;;;;8.40;2.10;;;;;;;27.30;57.55;100008.22;106111;1273;22703;-68
2022/08/26 11:10:55;;;;;;;11.60;2.50;;;;;;;27.35;57.73;100004.78;105995;1274;25271;-67
2022/08/26 11:14:06;;;;;;;13.20;1.80;;;;;;;27.41;57.16;100000.77;105855;1274;22611;-66
2022/08/26 11:16:42;;;;;;;10.50;2.00;;;;;;;27.41;56.91;99996.80;105649;1276;22536;-67
2022/08/26 11:19:36;;;;;;;10.20;2.10;;;;;;;27.42;56.35;99997.58;105508;1276;25352;-66
2022/08/26 11:22:10;;;;;;;13.90;1.70;;;;;;;27.42;55.09;99998.29;105450;1276;22701;-66
2022/08/26 11:25:00;;;;;;;10.30;1.70;;;;;;;27.46;54.77;99990.10;105502;1275;22640;-67
2022/08/26 11:28:04;;;;;;;9.80;1.80;;;;;;;27.51;54.67;99991.52;105518;1276;24462;-67
2022/08/26 11:30:49;;;;;;;8.80;1.90;;;;;;;27.60;54.54;99985.44;105518;1276;24430;-70
2022/08/26 11:33:55;;;;;;;10.30;2.00;;;;;;;27.64;54.09;99982.57;105523;1276;24321;-68
2022/08/26 11:36:57;;;;;;;13.30;1.80;;;;;;;27.69;53.59;99982.98;105493;1276;22555;-67
2022/08/26 11:39:31;;;;;;;10.40;1.30;;;;;;;27.73;52.62;99977.48;105542;1276;22570;-67
2022/08/26 11:42:15;;;;;;;16.00;2.20;;;;;;;27.74;52.67;99978.64;105439;1276;25509;-67
2022/08/26 11:44:48;;;;;;;12.00;1.90;;;;;;;27.76;52.18;99974.44;105505;1276;24241;-68
2022/08/26 11:47:28;;;;;;;13.90;2.10;;;;;;;27.78;52.17;99974.63;105557;1276;22710;-68
2022/08/26 11:50:15;;;;;;;14.40;1.60;;;;;;;27.84;52.63;99973.46;105718;1276;23021;-66
2022/08/26 11:53:00;;;;;;;7.60;1.70;;;;;;;27.88;51.47;99975.19;105678;1274;22699;-68